createdAt,value
2023-04-18T05:38:30.412Z,58.62
2023-04-18T05:41:00.558Z,59.18
2023-04-18T05:43:28.453Z,59.54
2023-04-18T05:45:57.772Z,58.78
2023-04-18T05:48:25.882Z,58.40
2023-04-18T05:50:53.512Z,57.70
2023-04-18T05:53:21.424Z,56.52
2023-04-18T05:55:50.273Z,56.74
2023-04-18T05:58:17.948Z,57.21
2023-04-18T06:00:45.842Z,56.26
2023-04-18T06:03:13.816Z,55.87
2023-04-18T06:05:41.690Z,56.49
2023-04-18T06:08:09.500Z,55.72
2023-04-18T06:10:39.165Z,55.09
2023-04-18T06:13:06.971Z,55.29
2023-04-18T06:15:35.520Z,54.97
2023-04-18T06:18:03.204Z,55.12
2023-04-18T06:20:31.051Z,54.67
2023-04-18T06:22:58.776Z,54.00
2023-04-18T06:25:26.524Z,52.87
2023-04-18T06:27:54.154Z,52.76
2023-04-18T06:30:22.271Z,52.31
2023-04-18T06:32:50.063Z,50.36
2023-04-18T06:35:17.978Z,50.48
2023-04-18T06:37:46.114Z,50.72
2023-04-18T06:40:14.048Z,51.47
2023-04-18T06:42:42.684Z,49.41
2023-04-18T06:45:12.036Z,47.47
2023-04-18T06:47:40.915Z,46.41
2023-04-18T06:50:09.253Z,46.36
2023-04-18T06:52:40.819Z,44.27
2023-04-18T06:55:09.516Z,42.73
2023-04-18T06:57:41.783Z,43.41
2023-04-18T07:00:10.715Z,41.91
2023-04-18T07:02:39.928Z,42.01
2023-04-18T07:05:08.524Z,39.83
2023-04-18T07:07:36.261Z,38.51
2023-04-18T07:10:04.167Z,40.29
2023-04-18T07:12:31.868Z,40.53
2023-04-18T07:14:59.543Z,39.52
2023-04-18T07:17:27.267Z,39.37
2023-04-18T07:19:54.897Z,39.08
2023-04-18T07:22:22.528Z,38.02
2023-04-18T07:24:50.234Z,38.71
2023-04-18T07:27:17.934Z,39.71
2023-04-18T07:29:45.856Z,39.00
2023-04-18T07:32:13.626Z,38.80
2023-04-18T07:34:41.493Z,38.97
2023-04-18T07:37:09.342Z,37.33
2023-04-18T07:39:37.104Z,38.65
2023-04-18T07:42:04.944Z,37.22
2023-04-18T07:44:34.954Z,38.21
2023-04-18T07:47:03.426Z,38.25
2023-04-18T07:49:31.067Z,38.55
2023-04-18T07:51:58.721Z,37.93
2023-04-18T07:54:26.527Z,38.08
2023-04-18T07:56:54.275Z,38.26
2023-04-18T07:59:21.892Z,38.31
2023-04-18T08:01:49.599Z,38.01
2023-04-18T08:04:17.506Z,39.67
2023-04-18T08:06:45.429Z,39.31
2023-04-18T08:09:13.346Z,39.10
2023-04-18T08:11:42.795Z,39.36
2023-04-18T08:14:10.778Z,39.26
2023-04-18T08:16:40.129Z,39.53
2023-04-18T08:19:07.910Z,38.17
2023-04-18T08:21:35.799Z,39.64
2023-04-18T08:24:03.559Z,39.71
2023-04-18T08:26:31.264Z,39.92
2023-04-18T08:28:58.947Z,39.44
2023-04-18T08:31:27.754Z,38.96
2023-04-18T08:33:55.471Z,39.73
2023-04-18T08:36:25.012Z,38.80
2023-04-18T08:38:52.704Z,39.14
2023-04-18T08:41:25.202Z,38.63
2023-04-18T08:43:53.852Z,38.75
2023-04-18T08:46:23.338Z,38.42
2023-04-18T08:48:51.575Z,38.72
2023-04-18T08:51:19.370Z,38.14
2023-04-18T08:53:48.467Z,38.47
2023-04-18T08:56:16.502Z,38.07
2023-04-18T08:58:45.260Z,38.01
2023-04-18T09:01:13.861Z,36.89
2023-04-18T09:03:43.304Z,37.72
2023-04-18T09:06:20.393Z,38.10
2023-04-18T09:08:59.226Z,38.52
2023-04-18T09:11:29.748Z,37.72
2023-04-18T09:13:59.210Z,37.88
2023-04-18T09:16:28.166Z,37.56
2023-04-18T09:19:13.133Z,36.05
2023-04-18T09:21:44.658Z,38.76
2023-04-18T09:24:29.566Z,37.10
2023-04-18T09:26:59.880Z,35.86
2023-04-18T09:29:56.533Z,36.92
2023-04-18T09:32:29.451Z,36.18
2023-04-18T09:35:01.402Z,35.96
2023-04-18T09:37:31.139Z,37.70
2023-04-18T09:39:58.966Z,35.81
2023-04-18T09:42:28.810Z,34.56
2023-04-18T09:45:08.517Z,36.14
2023-04-18T09:47:37.583Z,35.08
2023-04-18T09:50:07.450Z,35.20
2023-04-18T09:52:42.509Z,34.17
2023-04-18T09:55:13.043Z,35.17
2023-04-18T09:57:44.509Z,35.06
2023-04-18T10:00:27.417Z,35.26
2023-04-18T10:03:09.991Z,36.20
2023-04-18T10:05:41.378Z,36.73
2023-04-18T10:08:09.616Z,36.29
2023-04-18T10:10:38.934Z,36.30
2023-04-18T10:13:11.835Z,35.84
2023-04-18T10:15:41.143Z,36.55
2023-04-18T10:18:14.471Z,35.54
2023-04-18T10:20:42.561Z,36.37
2023-04-18T10:23:40.399Z,35.92
2023-04-18T10:26:10.209Z,34.46
2023-04-18T10:28:58.676Z,36.91
2023-04-18T10:31:28.230Z,35.06
2023-04-18T10:36:31.219Z,34.68
2023-04-18T10:41:51.228Z,34.17
2023-04-18T10:44:23.565Z,32.22
2023-04-18T10:46:51.656Z,33.91
2023-04-18T10:49:28.859Z,34.03
2023-04-18T10:51:59.653Z,34.18
2023-04-18T10:54:39.310Z,32.45
2023-04-18T10:57:11.466Z,33.32
2023-04-18T10:59:42.899Z,32.28
2023-04-18T11:02:30.997Z,33.66
2023-04-18T11:05:04.888Z,33.30
2023-04-18T11:07:36.371Z,33.39
2023-04-18T11:10:08.629Z,32.58
2023-04-18T11:12:38.537Z,32.79
2023-04-18T11:15:23.144Z,33.17
2023-04-18T11:18:05.046Z,32.31
2023-04-18T11:20:41.107Z,32.71
2023-04-18T11:23:24.897Z,30.00
2023-04-18T11:25:56.679Z,30.55
2023-04-18T11:28:27.560Z,30.88
2023-04-18T11:30:59.536Z,32.07
2023-04-18T11:33:29.411Z,31.64
2023-04-18T11:35:58.925Z,32.36
2023-04-18T11:38:33.994Z,32.01
2023-04-18T11:41:04.979Z,32.84
2023-04-18T11:43:32.731Z,32.04
2023-04-18T11:46:01.126Z,31.10
2023-04-18T11:48:39.198Z,32.16
2023-04-18T11:51:08.106Z,30.77
2023-04-18T11:53:37.188Z,31.58
2023-04-18T11:56:06.015Z,29.85
2023-04-18T11:58:34.722Z,31.53
2023-04-18T12:01:19.738Z,30.91
2023-04-18T12:04:07.389Z,30.20
2023-04-18T12:06:53.818Z,29.83
2023-04-18T12:09:24.558Z,31.24
2023-04-18T12:11:59.705Z,31.06
2023-04-18T12:14:28.571Z,30.96
2023-04-18T12:16:56.623Z,30.27
2023-04-18T12:19:28.459Z,30.65
2023-04-18T12:21:58.057Z,31.33
2023-04-18T12:24:26.632Z,31.56
2023-04-18T12:26:55.614Z,30.95
2023-04-18T12:29:24.020Z,30.85
2023-04-18T12:31:51.901Z,29.79
2023-04-18T12:34:19.777Z,30.98
2023-04-18T12:36:47.470Z,30.43
2023-04-18T12:39:15.212Z,29.60
2023-04-18T12:41:44.271Z,30.88
2023-04-18T12:44:12.815Z,30.71
2023-04-18T12:46:40.788Z,29.66
2023-04-18T12:49:08.563Z,31.03
2023-04-18T12:51:36.313Z,30.27
2023-04-18T12:54:04.395Z,29.95
2023-04-18T12:56:32.114Z,31.89
2023-04-18T12:58:59.881Z,30.12
2023-04-18T13:01:27.942Z,29.86
2023-04-18T13:04:04.346Z,31.31
2023-04-18T13:06:37.788Z,29.64
2023-04-18T13:09:05.704Z,29.47
2023-04-18T13:11:33.486Z,29.44
2023-04-18T13:14:01.386Z,28.42
2023-04-18T13:16:29.319Z,29.69
2023-04-18T13:18:57.081Z,29.00
2023-04-18T13:21:26.118Z,28.79
2023-04-18T13:23:53.817Z,28.95
2023-04-18T13:26:21.518Z,28.29
2023-04-18T13:28:50.287Z,29.73
2023-04-18T13:31:18.076Z,28.43
2023-04-18T13:33:45.813Z,28.71
2023-04-18T13:36:13.504Z,29.33
2023-04-18T13:38:41.809Z,28.40
2023-04-18T13:41:12.988Z,26.39
2023-04-18T13:43:41.688Z,28.59
2023-04-18T13:46:09.645Z,28.95
2023-04-18T13:48:37.556Z,29.49
2023-04-18T13:51:05.783Z,27.82
2023-04-18T13:53:33.558Z,29.06
2023-04-18T13:56:01.853Z,29.13
2023-04-18T13:58:29.907Z,29.18
2023-04-18T14:00:57.636Z,28.89
2023-04-18T14:03:25.559Z,28.54
2023-04-18T14:05:53.351Z,29.39
2023-04-18T14:08:21.142Z,29.41
2023-04-18T14:10:48.914Z,30.88
2023-04-18T14:13:16.790Z,29.73
2023-04-18T14:15:44.639Z,29.79
2023-04-18T14:18:12.629Z,29.74
2023-04-18T14:20:40.722Z,30.18
2023-04-18T14:23:08.527Z,29.55
2023-04-18T14:25:36.479Z,29.26
2023-04-18T14:28:10.969Z,29.36
2023-04-18T14:30:39.927Z,29.91
2023-04-18T14:33:09.639Z,28.21
2023-04-18T14:35:37.747Z,28.04
2023-04-18T14:38:05.497Z,29.03
2023-04-18T14:40:33.254Z,27.61
2023-04-18T14:43:01.184Z,29.05
2023-04-18T14:45:32.800Z,26.91
2023-04-18T14:48:01.357Z,27.98
2023-04-18T14:50:29.148Z,28.27
2023-04-18T14:52:57.051Z,28.04
2023-04-18T14:55:25.919Z,28.28
2023-04-18T14:57:54.932Z,28.21
2023-04-18T15:00:22.807Z,28.03
2023-04-18T15:02:50.802Z,27.77
2023-04-18T15:05:20.120Z,27.92
2023-04-18T15:07:48.031Z,28.25
2023-04-18T15:10:16.316Z,29.12
2023-04-18T15:12:44.180Z,28.24
2023-04-18T15:15:12.010Z,29.74
2023-04-18T15:17:39.975Z,29.29
2023-04-18T15:20:08.466Z,29.30
2023-04-18T15:22:37.236Z,28.62
2023-04-18T15:25:05.857Z,29.48
2023-04-18T15:27:33.576Z,28.81
2023-04-18T15:30:02.652Z,29.01
2023-04-18T15:32:31.167Z,29.26
2023-04-18T15:34:58.903Z,29.76
2023-04-18T15:37:26.724Z,30.12
2023-04-18T15:39:54.571Z,29.32
2023-04-18T15:42:22.360Z,30.46
2023-04-18T15:44:50.946Z,30.67
2023-04-18T15:47:18.688Z,30.44
2023-04-18T15:49:47.040Z,30.70
2023-04-18T15:52:16.092Z,30.69
2023-04-18T15:54:44.206Z,31.47
2023-04-18T15:57:12.039Z,31.35
2023-04-18T15:59:39.884Z,31.53
2023-04-18T16:02:09.376Z,31.21
2023-04-18T16:04:37.203Z,31.29
2023-04-18T16:07:05.113Z,31.40
2023-04-18T16:09:32.929Z,31.64
2023-04-18T16:12:01.844Z,31.56
2023-04-18T16:14:30.572Z,31.33
2023-04-18T16:16:59.252Z,31.97
2023-04-18T16:19:27.188Z,32.99
2023-04-18T16:21:54.957Z,34.31
2023-04-18T16:24:22.657Z,34.65
2023-04-18T16:26:50.604Z,34.91
2023-04-18T16:29:18.344Z,35.64
2023-04-18T16:31:46.277Z,35.00
2023-04-18T16:34:15.927Z,35.48
2023-04-18T16:36:43.911Z,35.31
2023-04-18T16:39:11.792Z,35.31
2023-04-18T16:41:39.567Z,35.74
2023-04-18T16:44:07.409Z,35.31
2023-04-18T16:46:35.215Z,36.48
2023-04-18T16:49:03.036Z,35.81
2023-04-18T16:51:31.455Z,36.13
2023-04-18T16:53:59.418Z,36.17
2023-04-18T16:56:27.164Z,36.19
2023-04-18T16:58:54.979Z,36.25
2023-04-18T17:01:22.839Z,37.09
2023-04-18T17:03:50.869Z,35.98
2023-04-18T17:06:19.610Z,36.53
2023-04-18T17:08:49.000Z,36.37
2023-04-18T17:11:16.845Z,36.34
2023-04-18T17:13:44.606Z,36.31
2023-04-18T17:16:12.522Z,35.59
2023-04-18T17:18:41.761Z,36.18
2023-04-18T17:21:12.605Z,36.72
2023-04-18T17:23:42.587Z,36.65
2023-04-18T17:26:10.654Z,36.60
2023-04-18T17:28:38.525Z,36.79
2023-04-18T17:31:06.735Z,36.53
2023-04-18T17:33:34.600Z,37.27
2023-04-18T17:36:03.284Z,37.35
2023-04-18T17:38:32.733Z,37.38
2023-04-18T17:41:01.609Z,37.48
2023-04-18T17:43:29.628Z,37.85
2023-04-18T17:46:00.397Z,37.23
2023-04-18T17:48:28.279Z,37.65
2023-04-18T17:50:56.108Z,37.80
2023-04-18T17:53:23.912Z,38.28
2023-04-18T17:55:52.447Z,38.36
2023-04-18T17:58:20.213Z,38.26
2023-04-18T18:00:48.300Z,38.88
2023-04-18T18:03:16.485Z,38.40
2023-04-18T18:05:48.607Z,39.76
2023-04-18T18:08:16.519Z,39.20
2023-04-18T18:10:46.969Z,39.62
2023-04-18T18:13:15.305Z,39.54
2023-04-18T18:15:43.000Z,39.09
2023-04-18T18:18:11.598Z,39.50
2023-04-18T18:20:43.379Z,39.72
2023-04-18T18:23:11.248Z,40.14
2023-04-18T18:25:39.038Z,40.37
2023-04-18T18:28:07.325Z,40.33
2023-04-18T18:30:37.600Z,40.96
2023-04-18T18:33:06.829Z,41.23
2023-04-18T18:35:36.338Z,41.57
2023-04-18T18:38:04.341Z,43.11
2023-04-18T18:40:32.284Z,43.16
2023-04-18T18:43:00.995Z,43.76
2023-04-18T18:45:28.862Z,43.67
2023-04-18T18:47:56.769Z,44.20
2023-04-18T18:50:24.821Z,44.57
2023-04-18T18:52:52.771Z,44.54
2023-04-18T18:55:20.504Z,45.26
2023-04-18T18:57:48.394Z,46.80
2023-04-18T19:00:16.618Z,46.42
2023-04-18T19:02:44.645Z,47.68
2023-04-18T19:05:15.285Z,48.04
2023-04-18T19:07:43.275Z,47.23
2023-04-18T19:10:11.475Z,47.29
2023-04-18T19:12:39.329Z,47.45
2023-04-18T19:15:07.729Z,48.48
2023-04-18T19:17:36.048Z,48.40
2023-04-18T19:20:08.155Z,48.59
2023-04-18T19:22:37.149Z,48.61
2023-04-18T19:25:06.145Z,49.17
2023-04-18T19:27:34.752Z,49.33
2023-04-18T19:30:03.059Z,49.42
2023-04-18T19:32:32.908Z,50.43
2023-04-18T19:35:01.633Z,51.28
2023-04-18T19:37:29.808Z,51.31
2023-04-18T19:39:57.919Z,52.11
2023-04-18T19:42:27.356Z,52.20
2023-04-18T19:44:56.681Z,50.69
2023-04-18T19:47:25.086Z,51.25
2023-04-18T19:49:53.362Z,50.69
2023-04-18T19:52:21.571Z,50.30
2023-04-18T19:54:49.731Z,50.51
2023-04-18T19:57:17.825Z,50.23
2023-04-18T19:59:45.780Z,50.87
2023-04-18T20:02:13.832Z,51.51
2023-04-18T20:04:42.424Z,51.84
2023-04-18T20:07:10.700Z,51.94
2023-04-18T20:09:38.745Z,52.41
2023-04-18T20:12:06.781Z,52.81
2023-04-18T20:14:37.850Z,54.64
2023-04-18T20:17:19.947Z,55.02
2023-04-18T20:19:49.905Z,54.88
2023-04-18T20:22:19.188Z,55.27
2023-04-18T20:24:48.920Z,54.81
2023-04-18T20:27:20.573Z,54.82
2023-04-18T20:29:48.686Z,53.66
2023-04-18T20:32:16.856Z,53.17
2023-04-18T20:34:46.854Z,54.21
2023-04-18T20:37:16.245Z,53.70
2023-04-18T20:39:44.525Z,53.82
2023-04-18T20:42:14.822Z,53.95
2023-04-18T20:44:44.307Z,54.21
2023-04-18T20:47:14.752Z,53.86
2023-04-18T20:49:43.721Z,54.51
2023-04-18T20:52:11.802Z,54.89
2023-04-18T20:54:41.878Z,54.44
2023-04-18T20:57:10.086Z,54.39
2023-04-18T20:59:38.395Z,53.94
2023-04-18T21:02:09.408Z,53.87
2023-04-18T21:04:37.793Z,53.32
2023-04-18T21:07:05.926Z,53.30
2023-04-18T21:09:36.800Z,52.79
2023-04-18T21:12:06.095Z,54.22
2023-04-18T21:14:34.496Z,53.21
2023-04-18T21:17:02.322Z,53.41
2023-04-18T21:19:30.157Z,53.02
2023-04-18T21:21:57.999Z,53.57
2023-04-18T21:24:25.811Z,53.33
2023-04-18T21:26:53.704Z,53.09
2023-04-18T21:29:21.957Z,54.16
2023-04-18T21:31:50.347Z,52.80
2023-04-18T21:34:18.232Z,52.79
2023-04-18T21:36:46.260Z,52.73
2023-04-18T21:39:14.085Z,53.02
2023-04-18T21:41:41.885Z,52.87
2023-04-18T21:44:09.690Z,52.74
2023-04-18T21:46:37.523Z,52.57
2023-04-18T21:49:05.378Z,52.90
2023-04-18T21:51:33.270Z,52.84
2023-04-18T21:54:01.230Z,52.86
2023-04-18T21:56:29.048Z,53.41
2023-04-18T21:58:56.825Z,52.97
2023-04-18T22:01:24.767Z,53.09
2023-04-18T22:03:53.021Z,52.67
2023-04-18T22:06:22.156Z,52.66
2023-04-18T22:08:50.171Z,52.88
2023-04-18T22:11:18.858Z,53.56
2023-04-18T22:13:47.508Z,53.12
2023-04-18T22:16:15.597Z,54.54
2023-04-18T22:18:43.502Z,53.85
2023-04-18T22:21:11.434Z,54.58
2023-04-18T22:23:39.260Z,54.94
2023-04-18T22:26:06.985Z,55.47
2023-04-18T22:28:34.793Z,56.22
2023-04-18T22:31:02.815Z,57.34
2023-04-18T22:33:30.854Z,57.49
2023-04-18T22:35:58.758Z,57.95
2023-04-18T22:38:26.560Z,58.89
2023-04-18T22:40:54.397Z,57.96
2023-04-18T22:43:23.923Z,60.12
2023-04-18T22:45:51.841Z,59.04
2023-04-18T22:48:19.773Z,58.35
2023-04-18T22:50:47.645Z,58.64
2023-04-18T22:53:16.130Z,57.73
2023-04-18T22:55:45.027Z,57.55
2023-04-18T22:58:13.591Z,58.05
2023-04-18T23:00:41.410Z,57.73
2023-04-18T23:03:09.420Z,58.18
2023-04-18T23:05:37.389Z,58.83
2023-04-18T23:08:07.101Z,59.44
2023-04-18T23:10:35.130Z,59.18
2023-04-18T23:13:02.930Z,60.61
2023-04-18T23:15:30.765Z,60.15
2023-04-18T23:17:58.672Z,60.92
2023-04-18T23:20:26.515Z,61.21
2023-04-18T23:22:55.563Z,61.58
2023-04-18T23:25:23.405Z,61.54
2023-04-18T23:27:51.271Z,61.46
2023-04-18T23:30:19.035Z,61.51
2023-04-18T23:32:46.875Z,61.35
2023-04-18T23:35:14.701Z,61.49
2023-04-18T23:37:42.584Z,62.07
2023-04-18T23:40:11.220Z,62.63
2023-04-18T23:42:39.006Z,62.21
2023-04-18T23:45:07.185Z,61.78
2023-04-18T23:47:35.587Z,62.86
2023-04-18T23:50:03.595Z,62.18
2023-04-18T23:52:31.336Z,62.80
2023-04-18T23:55:00.929Z,62.14
2023-04-18T23:57:28.897Z,62.44
2023-04-18T23:59:56.675Z,61.69
